Time;durP1;ratioP1;P1;durP2;ratioP2;P2;SDS_P1;SDS_P2;PMS_P1;PMS_P2;Temp;Humidity;BMP_temperature;BMP_pressure;BME280_temperature;BME280_humidity;BME280_pressure;Samples;Min_cycle;Max_cycle;Signal;HPM_P1;HPM_P2
2024/02/15 00:01:49;;;;;;;;;;;;;;;17.35;47.60;99841.09;10198450;28;853;-70
2024/02/15 00:06:45;;;;;;;;;;;;;;;17.33;47.56;99837.66;10198788;28;854;-70
2024/02/15 00:11:40;;;;;;;;;;;;;;;17.31;47.54;99841.19;10198551;28;1949;-70
2024/02/15 00:16:36;;;;;;;;;;;;;;;17.29;47.57;99848.31;10197922;28;917;-70
2024/02/15 00:21:32;;;;;;;;;;;;;;;17.27;47.53;99850.16;10197770;28;861;-70
2024/02/15 00:26:28;;;;;;;;;;;;;;;17.25;47.59;99851.97;10197718;28;837;-70
2024/02/15 00:31:24;;;;;;;;;;;;;;;17.22;47.59;99844.19;10197469;28;1492;-70
2024/02/15 00:36:20;;;;;;;;;;;;;;;17.21;47.53;99847.78;10198071;28;1964;-70
2024/02/15 00:41:16;;;;;;;;;;;;;;;17.20;47.55;99850.44;10197938;28;845;-70
2024/02/15 00:46:11;;;;;;;;;;;;;;;17.19;47.49;99851.38;10198394;28;908;-70
2024/02/15 00:51:07;;;;;;;;;;;;;;;17.17;47.67;99851.44;10197114;28;1032;-70
2024/02/15 00:56:03;;;;;;;;;;;;;;;17.14;47.79;99851.56;10201872;28;1898;-71
2024/02/15 01:00:59;;;;;;;;;;;;;;;17.15;47.45;99857.66;10204564;28;854;-70
2024/02/15 01:05:55;;;;;;;;;;;;;;;17.13;47.59;99860.34;10203709;28;864;-70
2024/02/15 01:10:53;;;;;;;;;;;;;;;17.12;47.76;99861.28;10204145;28;952;-70
2024/02/15 01:15:49;;;;;;;;;;;;;;;17.09;47.70;99859.63;10203255;28;1906;-71
2024/02/15 01:20:45;;;;;;;;;;;;;;;17.08;47.76;99859.66;10203804;28;849;-71
2024/02/15 01:25:41;;;;;;;;;;;;;;;17.06;47.81;99864.16;10204156;28;763;-70
2024/02/15 01:30:37;;;;;;;;;;;;;;;17.05;47.70;99862.44;10203158;28;1257;-70
2024/02/15 01:35:33;;;;;;;;;;;;;;;17.04;47.68;99860.72;10202980;28;1914;-70
2024/02/15 01:40:29;;;;;;;;;;;;;;;17.03;47.85;99866.91;10203511;28;809;-70
2024/02/15 01:45:25;;;;;;;;;;;;;;;17.01;47.87;99868.75;10202409;28;950;-70
2024/02/15 01:50:21;;;;;;;;;;;;;;;17.01;47.83;99858.22;10202730;28;932;-70
2024/02/15 01:55:18;;;;;;;;;;;;;;;16.99;47.92;99860.88;10202287;28;1941;-70
2024/02/15 02:00:15;;;;;;;;;;;;;;;16.98;47.72;99863.59;10201962;28;874;-70
2024/02/15 02:05:11;;;;;;;;;;;;;;;16.96;47.98;99863.66;10201033;28;781;-70
2024/02/15 02:10:07;;;;;;;;;;;;;;;16.95;48.10;99863.69;10202304;28;853;-70
2024/02/15 02:15:03;;;;;;;;;;;;;;;16.94;47.99;99859.34;10201426;28;1961;-70
2024/02/15 02:19:59;;;;;;;;;;;;;;;16.92;48.00;99854.13;10201978;28;905;-70
2024/02/15 02:24:54;;;;;;;;;;;;;;;16.92;48.04;99840.13;10200809;28;809;-70
2024/02/15 02:29:51;;;;;;;;;;;;;;;16.92;47.96;99837.47;10201135;28;1152;-70
2024/02/15 02:34:46;;;;;;;;;;;;;;;16.91;48.01;99833.16;10200263;28;1985;-70
2024/02/15 02:39:42;;;;;;;;;;;;;;;16.88;47.77;99828.84;10201466;28;806;-70
2024/02/15 02:44:39;;;;;;;;;;;;;;;16.86;47.86;99821.00;10200540;28;917;-70
2024/02/15 02:49:34;;;;;;;;;;;;;;;16.86;47.99;99826.28;10201321;28;774;-70
2024/02/15 02:54:30;;;;;;;;;;;;;;;16.85;48.01;99821.94;10200469;28;1883;-70
2024/02/15 02:59:26;;;;;;;;;;;;;;;16.84;48.13;99812.28;10200130;28;881;-70
2024/02/15 03:04:22;;;;;;;;;;;;;;;16.84;47.80;99812.28;10199456;28;992;-70
2024/02/15 03:09:20;;;;;;;;;;;;;;;16.83;47.85;99809.75;10200442;28;814;-70
2024/02/15 03:14:16;;;;;;;;;;;;;;;16.83;47.84;99810.59;10199598;28;1902;-70
2024/02/15 03:19:12;;;;;;;;;;;;;;;16.82;47.99;99808.88;10200112;28;984;-70
2024/02/15 03:24:08;;;;;;;;;;;;;;;16.80;47.88;99794.06;10199439;28;852;-70
2024/02/15 03:29:04;;;;;;;;;;;;;;;16.79;47.94;99797.59;10199769;28;1337;-70
2024/02/15 03:33:59;;;;;;;;;;;;;;;16.80;48.12;99796.69;10199080;28;1914;-70
2024/02/15 03:38:55;;;;;;;;;;;;;;;16.78;47.82;99791.50;10200183;28;786;-70
2024/02/15 03:43:51;;;;;;;;;;;;;;;16.77;48.05;99797.69;10199569;28;829;-71
2024/02/15 03:48:47;;;;;;;;;;;;;;;16.76;48.08;99787.16;10198710;28;723;-70
2024/02/15 03:53:43;;;;;;;;;;;;;;;16.74;48.08;99781.97;10199407;28;1918;-70
2024/02/15 03:58:39;;;;;;;;;;;;;;;16.75;48.05;99793.34;10198984;28;865;-70
2024/02/15 04:03:35;;;;;;;;;;;;;;;16.73;47.84;99780.25;10198732;28;836;-70
2024/02/15 04:08:31;;;;;;;;;;;;;;;16.73;48.03;99789.91;10197548;28;890;-70
2024/02/15 04:13:27;;;;;;;;;;;;;;;16.71;47.93;99781.22;10197980;28;1898;-70
2024/02/15 04:18:22;;;;;;;;;;;;;;;16.71;47.87;99781.22;10198678;28;813;-70
2024/02/15 04:23:19;;;;;;;;;;;;;;;16.70;47.91;99782.16;10197256;28;920;-70
2024/02/15 04:28:15;;;;;;;;;;;;;;;16.69;48.08;99773.41;10198996;28;1560;-70
2024/02/15 04:33:12;;;;;;;;;;;;;;;16.69;48.08;99783.94;10204884;28;1918;-70
2024/02/15 04:38:08;;;;;;;;;;;;;;;16.67;47.97;99775.22;10204555;28;863;-70
2024/02/15 04:43:04;;;;;;;;;;;;;;;16.66;47.93;99776.13;10204382;28;893;-70
2024/02/15 04:48:01;;;;;;;;;;;;;;;16.66;48.19;99770.84;10203780;28;923;-70
2024/02/15 04:52:57;;;;;;;;;;;;;;;16.66;48.04;99770.84;10204083;28;1902;-71
2024/02/15 04:57:54;;;;;;;;;;;;;;;16.67;48.13;99764.69;10204615;28;921;-70
2024/02/15 05:02:50;;;;;;;;;;;;;;;16.70;47.93;99761.09;10204715;28;861;-71
2024/02/15 05:07:48;;;;;;;;;;;;;;;16.72;48.05;99760.13;10203706;28;782;-70
2024/02/15 05:12:47;;;;;;;;;;;;;;;16.73;47.95;99767.09;10203412;28;1903;-70
2024/02/15 05:17:43;;;;;;;;;;;;;;;16.74;47.70;99760.91;10203886;28;818;-70
2024/02/15 05:22:39;;;;;;;;;;;;;;;16.77;47.77;99762.56;10203820;28;813;-70
2024/02/15 05:27:36;;;;;;;;;;;;;;;16.81;47.81;99762.41;10203819;28;1127;-70
2024/02/15 05:32:31;;;;;;;;;;;;;;;16.84;47.66;99753.53;10203765;28;1983;-70
2024/02/15 05:37:27;;;;;;;;;;;;;;;16.88;47.92;99760.41;10203312;28;940;-70
2024/02/15 05:42:24;;;;;;;;;;;;;;;16.91;47.69;99760.28;10202485;28;782;-70
2024/02/15 05:47:19;;;;;;;;;;;;;;;16.94;47.61;99762.78;10203036;28;926;-70
2024/02/15 05:52:18;;;;;;;;;;;;;;;16.97;47.86;99757.38;10203216;28;1902;-70
2024/02/15 05:57:15;;;;;;;;;;;;;;;17.00;47.64;99759.06;10202205;28;855;-70
2024/02/15 06:02:11;;;;;;;;;;;;;;;17.02;47.73;99754.59;10201916;28;909;-71
2024/02/15 06:07:09;;;;;;;;;;;;;;;17.06;47.73;99745.66;10202585;28;778;-71
2024/02/15 06:12:05;;;;;;;;;;;;;;;17.07;47.59;99734.19;10201729;28;1902;-71
2024/02/15 06:17:02;;;;;;;;;;;;;;;17.09;47.81;99730.56;10202195;28;881;-71
2024/02/15 06:21:58;;;;;;;;;;;;;;;17.14;47.45;99732.19;10202045;28;858;-76
2024/02/15 06:26:59;;;;;;;;;;;;;;;17.15;47.60;99734.72;10201280;28;862;-71
2024/02/15 06:42:26;;;;;;;;;;;;;;;17.23;47.74;99744.97;10201232;28;601;-71
2024/02/15 06:47:22;;;;;;;;;;;;;;;17.23;47.59;99755.50;10201001;28;906;-70
2024/02/15 06:52:18;;;;;;;;;;;;;;;17.26;47.70;99758.84;10200331;28;1906;-73
2024/02/15 06:57:15;;;;;;;;;;;;;;;17.28;47.84;99769.34;10199652;28;1729;-71
2024/02/15 07:02:11;;;;;;;;;;;;;;;17.30;47.87;99775.41;10200719;28;900;-71
2024/02/15 07:07:07;;;;;;;;;;;;;;;17.30;47.92;99776.25;10200568;28;829;-71
2024/02/15 07:12:04;;;;;;;;;;;;;;;17.29;47.83;99777.19;10199219;28;1898;-71
2024/02/15 07:17:00;;;;;;;;;;;;;;;17.28;47.78;99775.47;10200397;28;848;-71
2024/02/15 07:21:56;;;;;;;;;;;;;;;17.28;47.84;99780.72;10199489;28;953;-71
2024/02/15 07:26:55;;;;;;;;;;;;;;;17.28;47.85;99775.47;10199921;28;803;-72
2024/02/15 07:31:51;;;;;;;;;;;;;;;17.28;47.79;99779.88;10199358;28;1914;-72
2024/02/15 07:36:47;;;;;;;;;;;;;;;17.26;47.81;99774.66;10199095;28;818;-71
2024/02/15 07:41:42;;;;;;;;;;;;;;;17.27;48.01;99772.91;10198959;28;948;-71
2024/02/15 07:46:38;;;;;;;;;;;;;;;17.29;47.99;99779.81;10198847;28;810;-73
2024/02/15 07:51:34;;;;;;;;;;;;;;;17.29;48.04;99779.81;10198665;28;813;-71
2024/02/15 07:56:31;;;;;;;;;;;;;;;17.30;48.10;99781.53;10197827;28;1890;-71
2024/02/15 08:01:27;;;;;;;;;;;;;;;17.32;48.22;99778.84;10197828;28;1419;-71
2024/02/15 08:06:28;;;;;;;;;;;;;;;17.33;48.08;99767.38;10197972;28;849;-72
2024/02/15 08:11:26;;;;;;;;;;;;;;;17.35;48.10;99759.41;10198721;28;858;-71
2024/02/15 08:16:27;;;;;;;;;;;;;;;17.36;48.28;99759.34;10197974;28;1957;-71
2024/02/15 08:21:23;;;;;;;;;;;;;;;17.37;48.28;99734.72;10198468;28;841;-71
2024/02/15 08:26:18;;;;;;;;;;;;;;;17.38;48.12;99722.41;10197788;28;821;-72
2024/02/15 08:31:19;;;;;;;;;;;;;;;17.39;48.14;99714.41;10198413;28;1156;-71
2024/02/15 08:36:15;;;;;;;;;;;;;;;17.40;48.32;99704.75;10197391;28;1898;-68
2024/02/15 08:41:11;;;;;;;;;;;;;;;17.41;48.03;99709.94;10197349;28;909;-71
2024/02/15 08:46:07;;;;;;;;;;;;;;;17.42;48.24;99710.78;10197280;28;874;-71
2024/02/15 08:51:03;;;;;;;;;;;;;;;17.44;48.12;99719.50;10197483;28;855;-71
2024/02/15 08:55:59;;;;;;;;;;;;;;;17.45;48.30;99714.19;10196945;28;1894;-71
2024/02/15 09:00:55;;;;;;;;;;;;;;;17.46;48.14;99712.38;10196967;28;816;-71
2024/02/15 09:05:51;;;;;;;;;;;;;;;17.48;48.24;99716.69;10197416;28;922;-71
2024/02/15 09:10:47;;;;;;;;;;;;;;;17.48;48.19;99713.19;10196645;28;826;-71
2024/02/15 09:15:43;;;;;;;;;;;;;;;17.49;48.25;99720.16;10199744;28;1957;-71
2024/02/15 09:20:44;;;;;;;;;;;;;;;17.49;48.12;99722.78;10204504;28;809;-71
2024/02/15 09:25:42;;;;;;;;;;;;;;;17.50;48.24;99722.75;10203176;28;865;-71
2024/02/15 09:30:38;;;;;;;;;;;;;;;17.51;48.03;99726.22;10203047;28;1471;-71
2024/02/15 09:35:34;;;;;;;;;;;;;;;17.50;48.05;99712.22;10202734;28;1906;-71
2024/02/15 09:40:30;;;;;;;;;;;;;;;17.52;48.04;99712.13;10203329;28;935;-71
2024/02/15 09:45:26;;;;;;;;;;;;;;;17.52;47.91;99710.34;10202497;28;1009;-71
2024/02/15 09:50:22;;;;;;;;;;;;;;;17.53;48.08;99719.13;10201859;28;876;-71
2024/02/15 09:55:18;;;;;;;;;;;;;;;17.54;48.08;99728.72;10202255;28;2007;-71
2024/02/15 10:00:15;;;;;;;;;;;;;;;17.56;48.15;99721.63;10202688;28;982;-71
2024/02/15 10:05:13;;;;;;;;;;;;;;;17.55;48.01;99709.34;10201868;28;817;-71
2024/02/15 10:10:09;;;;;;;;;;;;;;;17.56;48.07;99713.72;10201776;28;927;-74
2024/02/15 10:15:07;;;;;;;;;;;;;;;17.60;48.20;99717.91;10199280;28;1890;-71
2024/02/15 10:20:03;;;;;;;;;;;;;;;17.60;48.11;99710.00;10201097;28;870;-71
2024/02/15 10:24:59;;;;;;;;;;;;;;;17.61;48.17;99714.38;10200979;28;773;-71
2024/02/15 10:29:55;;;;;;;;;;;;;;;17.62;48.06;99702.06;10200975;28;1338;-71
2024/02/15 10:34:53;;;;;;;;;;;;;;;17.63;47.93;99701.13;10199692;28;1910;-71
2024/02/15 10:39:49;;;;;;;;;;;;;;;17.64;48.18;99695.78;10200584;28;1569;-71
2024/02/15 10:44:45;;;;;;;;;;;;;;;17.65;48.19;99689.59;10200743;28;905;-71
2024/02/15 10:49:41;;;;;;;;;;;;;;;17.66;48.15;99696.59;10200364;28;788;-71
2024/02/15 10:54:37;;;;;;;;;;;;;;;17.64;48.23;99687.88;10199614;28;1902;-71
2024/02/15 10:59:34;;;;;;;;;;;;;;;17.68;48.16;99686.84;10200667;28;834;-71
2024/02/15 11:04:32;;;;;;;;;;;;;;;17.67;48.34;99690.38;10199410;28;917;-71
2024/02/15 11:09:29;;;;;;;;;;;;;;;17.66;48.16;99687.81;10200280;28;891;-71
2024/02/15 11:14:25;;;;;;;;;;;;;;;17.69;48.05;99674.50;10199872;28;1899;-71
2024/02/15 11:19:21;;;;;;;;;;;;;;;17.71;48.08;99673.53;10199449;28;818;-71
2024/02/15 11:24:17;;;;;;;;;;;;;;;17.70;48.07;99671.78;10199461;28;785;-76
2024/02/15 11:29:13;;;;;;;;;;;;;;;17.72;48.10;99661.19;10199008;28;1227;-71
2024/02/15 11:34:09;;;;;;;;;;;;;;;17.71;48.42;99660.34;10199076;28;1914;-71
2024/02/15 11:39:06;;;;;;;;;;;;;;;17.74;48.32;99660.19;10198581;28;984;-71
2024/02/15 11:44:02;;;;;;;;;;;;;;;17.74;48.02;99651.44;10198308;28;886;-71
2024/02/15 11:48:59;;;;;;;;;;;;;;;17.77;48.33;99645.19;10199066;28;805;-71
2024/02/15 11:53:55;;;;;;;;;;;;;;;17.78;48.28;99649.50;10197953;28;1951;-71
2024/02/15 11:59:02;;;;;;;;;;;;;;;17.77;48.21;99642.53;10198276;28;1055;-71
2024/02/15 12:19:42;;;;;;;;;;;;;;;17.75;48.01;99638.16;10197129;28;624;-71
2024/02/15 12:24:38;;;;;;;;;;;;;;;17.78;48.25;99631.91;10197201;28;885;-71
2024/02/15 12:29:35;;;;;;;;;;;;;;;17.80;48.06;99634.53;10197497;28;1498;-72
2024/02/15 12:34:31;;;;;;;;;;;;;;;17.80;47.99;99626.59;10197033;28;1910;-74
2024/02/15 12:39:27;;;;;;;;;;;;;;;17.81;48.05;99615.13;10197985;28;819;-71
2024/02/15 12:44:27;;;;;;;;;;;;;;;17.83;48.17;99616.75;10196727;28;785;-72
2024/02/15 12:49:23;;;;;;;;;;;;;;;17.86;48.18;99594.69;10198881;28;848;-72
2024/02/15 12:54:20;;;;;;;;;;;;;;;17.88;48.02;99598.09;10203769;28;1944;-71
2024/02/15 12:59:16;;;;;;;;;;;;;;;17.91;47.89;99593.53;10204386;28;1021;-71
2024/02/15 13:04:15;;;;;;;;;;;;;;;17.92;47.87;99594.38;10203605;28;786;-71
2024/02/15 13:09:12;;;;;;;;;;;;;;;17.92;47.78;99587.34;10203834;28;889;-71
2024/02/15 13:14:10;;;;;;;;;;;;;;;17.92;47.91;99584.72;10203094;28;1894;-71
2024/02/15 13:19:07;;;;;;;;;;;;;;;17.95;47.85;99581.09;10202929;28;786;-71
2024/02/15 13:24:04;;;;;;;;;;;;;;;17.98;47.69;99577.44;10202846;28;984;-71
2024/02/15 13:29:00;;;;;;;;;;;;;;;17.97;47.83;99563.38;10202185;28;1123;-71
2024/02/15 13:33:56;;;;;;;;;;;;;;;18.00;47.89;99554.47;10203126;28;1910;-71
2024/02/15 13:38:52;;;;;;;;;;;;;;;18.02;47.87;99550.84;10202405;28;861;-71
2024/02/15 13:43:48;;;;;;;;;;;;;;;18.02;47.71;99545.56;10164896;28;1833;-71
2024/02/15 13:48:44;;;;;;;;;;;;;;;18.06;47.58;99528.69;10162211;28;885;-71
2024/02/15 13:53:39;;;;;;;;;;;;;;;18.10;47.55;99524.97;10162065;28;1890;-71
2024/02/15 13:58:35;;;;;;;;;;;;;;;18.08;47.55;99518.91;10162150;28;860;-71
2024/02/15 14:03:33;;;;;;;;;;;;;;;18.04;47.77;99512.06;10162598;28;940;-71
2024/02/15 14:08:29;;;;;;;;;;;;;;;18.04;47.87;99504.16;10162402;28;925;-72
2024/02/15 14:13:25;;;;;;;;;;;;;;;18.06;47.88;99499.66;10161907;28;1878;-71
2024/02/15 14:18:21;;;;;;;;;;;;;;;18.06;47.65;99512.84;10161516;28;1500;-71
2024/02/15 14:23:17;;;;;;;;;;;;;;;18.06;47.97;99504.09;10162027;28;929;-71
2024/02/15 14:28:13;;;;;;;;;;;;;;;18.06;47.93;99502.31;10161081;28;1087;-71
2024/02/15 14:33:11;;;;;;;;;;;;;;;18.06;47.95;99507.59;10161727;28;2005;-71
2024/02/15 14:38:08;;;;;;;;;;;;;;;18.04;47.94;99498.88;10161505;28;810;-71
2024/02/15 14:43:07;;;;;;;;;;;;;;;18.03;48.08;99498.97;10161329;28;968;-71
2024/02/15 14:48:03;;;;;;;;;;;;;;;18.02;48.05;99497.25;10161819;28;901;-71
2024/02/15 14:52:59;;;;;;;;;;;;;;;17.99;47.94;99495.59;10160404;28;1948;-71
2024/02/15 14:57:55;;;;;;;;;;;;;;;17.96;48.03;99493.97;10160865;28;822;-71
2024/02/15 15:02:51;;;;;;;;;;;;;;;17.94;48.08;99498.47;10160140;28;854;-71
2024/02/15 15:13:02;;;;;;;;;;;;;;;17.98;48.04;99488.63;10159096;28;1961;-71
2024/02/15 15:17:58;;;;;;;;;;;;;;;17.95;47.93;99471.19;10159750;28;818;-71
2024/02/15 15:22:55;;;;;;;;;;;;;;;17.95;48.16;99470.34;10160117;28;836;-70
2024/02/15 15:27:51;;;;;;;;;;;;;;;17.96;48.11;99470.25;10159390;28;1114;-71
2024/02/15 15:32:49;;;;;;;;;;;;;;;17.95;48.17;99478.25;10160150;28;1915;-71
2024/02/15 15:37:45;;;;;;;;;;;;;;;17.96;48.25;99472.03;10159604;28;789;-73
2024/02/15 15:42:41;;;;;;;;;;;;;;;17.97;48.11;99457.91;10159487;28;774;-71
2024/02/15 15:47:37;;;;;;;;;;;;;;;17.98;48.28;99446.44;10158904;28;766;-71
2024/02/15 15:52:33;;;;;;;;;;;;;;;17.98;48.39;99432.41;10158595;28;1906;-71
2024/02/15 15:57:29;;;;;;;;;;;;;;;17.97;48.37;99426.25;10159812;28;1182;-72
2024/02/15 16:02:26;;;;;;;;;;;;;;;18.00;48.23;99417.34;10158558;28;884;-71
2024/02/15 16:07:22;;;;;;;;;;;;;;;17.99;48.13;99419.13;10159019;28;842;-70
2024/02/15 16:12:20;;;;;;;;;;;;;;;17.97;48.31;99415.72;10158293;28;1959;-71
2024/02/15 16:17:16;;;;;;;;;;;;;;;17.99;48.15;99415.66;10158560;28;884;-71
2024/02/15 16:22:12;;;;;;;;;;;;;;;18.00;48.17;99412.94;10158520;28;770;-70
2024/02/15 16:27:08;;;;;;;;;;;;;;;17.99;48.22;99402.47;10163667;28;870;-71
2024/02/15 16:32:06;;;;;;;;;;;;;;;17.99;48.44;99384.84;10164839;28;1987;-71
2024/02/15 16:37:03;;;;;;;;;;;;;;;17.99;48.24;99371.66;10165228;28;788;-71
2024/02/15 16:41:59;;;;;;;;;;;;;;;18.01;48.33;99374.25;10165631;28;851;-71
2024/02/15 16:46:55;;;;;;;;;;;;;;;18.00;48.28;99377.78;10164382;28;818;-71
2024/02/15 16:51:51;;;;;;;;;;;;;;;18.00;48.38;99391.84;10165103;28;878;-71
2024/02/15 16:56:47;;;;;;;;;;;;;;;18.01;48.30;99412.00;10164150;28;1964;-71
2024/02/15 17:01:43;;;;;;;;;;;;;;;18.02;48.41;99407.56;10164467;28;928;-71
2024/02/15 17:06:39;;;;;;;;;;;;;;;18.00;48.28;99402.41;10164378;28;865;-71
2024/02/15 17:11:35;;;;;;;;;;;;;;;18.03;48.34;99404.88;10164834;28;1009;-71
2024/02/15 17:16:31;;;;;;;;;;;;;;;18.02;48.16;99412.84;10164249;28;1926;-71
2024/02/15 17:21:28;;;;;;;;;;;;;;;18.03;48.36;99404.88;10163367;28;837;-71
2024/02/15 17:26:25;;;;;;;;;;;;;;;18.04;48.43;99403.94;10163728;28;1002;-71
2024/02/15 17:31:22;;;;;;;;;;;;;;;18.07;48.43;99409.06;10162534;28;1188;-71
2024/02/15 17:36:18;;;;;;;;;;;;;;;18.07;48.64;99409.06;10163521;28;1985;-71
2024/02/15 17:41:14;;;;;;;;;;;;;;;18.07;48.57;99416.13;10162719;28;808;-71
2024/02/15 17:46:10;;;;;;;;;;;;;;;18.06;48.75;99415.28;10162249;28;889;-71
2024/02/15 17:51:06;;;;;;;;;;;;;;;18.09;48.93;99409.84;10162695;28;766;-71
2024/02/15 17:56:02;;;;;;;;;;;;;;;18.08;48.84;99413.41;10162793;28;1910;-71
2024/02/15 18:00:57;;;;;;;;;;;;;;;18.09;48.59;99406.34;10162130;28;939;-71
2024/02/15 18:05:53;;;;;;;;;;;;;;;18.10;48.65;99394.84;10162583;28;846;-71
2024/02/15 18:10:49;;;;;;;;;;;;;;;18.12;48.43;99390.38;10162463;28;762;-71
2024/02/15 18:15:45;;;;;;;;;;;;;;;18.10;48.58;99381.66;10162203;28;1910;-71
2024/02/15 18:20:42;;;;;;;;;;;;;;;18.10;48.62;99377.28;10161619;28;802;-80
2024/02/15 18:25:38;;;;;;;;;;;;;;;18.10;48.63;99372.00;10162117;28;869;-78
2024/02/15 18:30:42;;;;;;;;;;;;;;;18.10;48.56;99361.44;10161811;28;1113;-72
2024/02/15 18:35:41;;;;;;;;;;;;;;;18.11;48.55;99347.31;10161065;28;1922;-71
2024/02/15 18:40:36;;;;;;;;;;;;;;;18.13;48.50;99332.28;10160990;28;842;-71
2024/02/15 18:45:32;;;;;;;;;;;;;;;18.14;48.57;99323.41;10160761;28;942;-71
2024/02/15 18:50:28;;;;;;;;;;;;;;;18.14;48.36;99314.66;10159715;28;786;-71
2024/02/15 18:55:25;;;;;;;;;;;;;;;18.13;48.29;99310.28;10161029;28;1898;-71
2024/02/15 19:00:21;;;;;;;;;;;;;;;18.15;48.35;99313.72;10160223;28;885;-71
2024/02/15 19:05:21;;;;;;;;;;;;;;;18.15;48.39;99313.72;10160290;28;837;-71
2024/02/15 19:10:17;;;;;;;;;;;;;;;18.16;48.35;99324.19;10160020;28;893;-71
2024/02/15 19:15:13;;;;;;;;;;;;;;;18.16;48.44;99324.19;10160079;28;1890;-71
2024/02/15 19:20:08;;;;;;;;;;;;;;;18.18;48.32;99318.81;10159738;28;813;-71
2024/02/15 19:25:04;;;;;;;;;;;;;;;18.16;48.37;99308.38;10160800;28;901;-71
2024/02/15 19:30:00;;;;;;;;;;;;;;;18.17;48.32;99315.34;10159124;28;1200;-71
2024/02/15 19:34:56;;;;;;;;;;;;;;;18.20;48.14;99313.47;10159844;28;1973;-71
2024/02/15 19:39:53;;;;;;;;;;;;;;;18.18;48.28;99301.25;10159079;28;842;-71
2024/02/15 19:44:49;;;;;;;;;;;;;;;18.21;48.23;99296.72;10158919;28;890;-71
2024/02/15 19:49:46;;;;;;;;;;;;;;;18.20;48.28;99295.03;10159399;28;1485;-71
2024/02/15 19:54:42;;;;;;;;;;;;;;;18.22;48.21;99298.44;10159203;28;1918;-71
2024/02/15 19:59:38;;;;;;;;;;;;;;;18.23;48.19;99294.84;10158437;28;764;-71
2024/02/15 20:04:36;;;;;;;;;;;;;;;18.23;48.15;99289.56;10158492;28;930;-71
2024/02/15 20:09:32;;;;;;;;;;;;;;;18.23;48.34;99285.16;10158219;28;1707;-71
2024/02/15 20:14:28;;;;;;;;;;;;;;;18.23;48.38;99284.31;10158651;28;1961;-71
2024/02/15 20:19:27;;;;;;;;;;;;;;;18.24;48.06;99289.50;10158878;28;825;-71
2024/02/15 20:24:23;;;;;;;;;;;;;;;18.23;48.07;99289.56;10157903;28;771;-71
2024/02/15 20:29:23;;;;;;;;;;;;;;;18.23;48.17;99289.56;10157906;28;1188;-71
2024/02/15 20:34:20;;;;;;;;;;;;;;;18.24;48.11;99293.94;10158198;28;1910;-71
2024/02/15 20:39:16;;;;;;;;;;;;;;;18.25;47.80;99290.34;10158071;28;806;-71
2024/02/15 20:44:12;;;;;;;;;;;;;;;18.25;48.11;99299.13;10157400;28;777;-71
2024/02/15 20:49:08;;;;;;;;;;;;;;;18.25;48.11;99291.19;10157866;28;867;-71
2024/02/15 20:54:04;;;;;;;;;;;;;;;18.23;48.14;99286.94;10157159;28;1949;-71
2024/02/15 20:59:00;;;;;;;;;;;;;;;18.24;48.26;99281.59;10158111;28;830;-71
2024/02/15 21:03:56;;;;;;;;;;;;;;;18.22;48.21;99262.34;10156954;28;861;-71
2024/02/15 21:08:52;;;;;;;;;;;;;;;18.21;48.07;99257.16;10156783;28;949;-71
2024/02/15 21:13:49;;;;;;;;;;;;;;;18.20;48.12;99255.44;10163083;28;1894;-71
2024/02/15 21:18:46;;;;;;;;;;;;;;;18.22;48.04;99266.78;10163404;28;992;-71
2024/02/15 21:23:42;;;;;;;;;;;;;;;18.22;48.00;99256.22;10163317;28;769;-74
2024/02/15 21:28:39;;;;;;;;;;;;;;;18.22;48.09;99251.81;10163067;28;1271;-71
2024/02/15 21:33:35;;;;;;;;;;;;;;;18.22;48.30;99237.75;10162933;28;1993;-71
2024/02/15 21:38:31;;;;;;;;;;;;;;;18.22;48.09;99237.75;10163556;28;826;-71
2024/02/15 21:43:27;;;;;;;;;;;;;;;18.19;48.10;99230.88;10161967;28;1164;-71
2024/02/15 21:48:23;;;;;;;;;;;;;;;18.17;48.06;99230.94;10163193;28;985;-71
2024/02/15 21:53:19;;;;;;;;;;;;;;;18.18;48.05;99210.69;10162825;28;1968;-71
2024/02/15 21:58:15;;;;;;;;;;;;;;;18.15;48.17;99203.78;10162283;28;759;-70
2024/02/15 22:03:12;;;;;;;;;;;;;;;18.15;48.08;99197.66;10162053;28;858;-71
2024/02/15 22:08:08;;;;;;;;;;;;;;;18.14;48.04;99210.00;10161938;28;900;-71
2024/02/15 22:13:04;;;;;;;;;;;;;;;18.12;48.06;99182.00;10161092;28;1964;-71
2024/02/15 22:18:00;;;;;;;;;;;;;;;18.12;48.12;99182.00;10161649;28;857;-71
2024/02/15 22:22:56;;;;;;;;;;;;;;;18.11;48.16;99190.84;10160188;28;900;-71
2024/02/15 22:27:53;;;;;;;;;;;;;;;18.09;47.82;99188.28;10161445;28;861;-71
2024/02/15 22:32:49;;;;;;;;;;;;;;;18.07;48.11;99178.75;10162679;28;1989;-70
2024/02/15 22:37:47;;;;;;;;;;;;;;;18.06;48.03;99203.44;10160989;28;775;-70
2024/02/15 22:42:43;;;;;;;;;;;;;;;18.05;47.82;99204.34;10161270;28;822;-70
2024/02/15 22:47:39;;;;;;;;;;;;;;;18.02;47.89;99192.19;10161027;28;837;-71
2024/02/15 22:52:35;;;;;;;;;;;;;;;18.01;47.82;99198.41;10161137;28;1961;-71
2024/02/15 22:57:31;;;;;;;;;;;;;;;17.98;47.70;99188.03;10160471;28;917;-70
2024/02/15 23:02:27;;;;;;;;;;;;;;;17.97;47.98;99188.94;10160281;28;878;-70
2024/02/15 23:07:24;;;;;;;;;;;;;;;17.94;47.69;99168.84;10161003;28;830;-71
2024/02/15 23:12:20;;;;;;;;;;;;;;;17.93;47.89;99190.88;10160086;28;1902;-71
2024/02/15 23:17:16;;;;;;;;;;;;;;;17.92;47.66;99177.78;10160206;28;933;-71
2024/02/15 23:22:13;;;;;;;;;;;;;;;17.91;47.64;99184.00;10160539;28;973;-71
2024/02/15 23:27:09;;;;;;;;;;;;;;;17.88;47.80;99189.44;10159808;28;866;-71
2024/02/15 23:32:05;;;;;;;;;;;;;;;17.87;47.80;99193.88;10160582;28;1397;-71
2024/02/15 23:42:15;;;;;;;;;;;;;;;17.84;47.80;99188.75;10158800;28;617;-71
2024/02/15 23:47:11;;;;;;;;;;;;;;;17.84;47.73;99198.41;10159813;28;770;-71
2024/02/15 23:52:08;;;;;;;;;;;;;;;17.82;47.73;99205.59;10159097;28;790;-71
2024/02/15 23:57:05;;;;;;;;;;;;;;;17.80;47.71;99199.53;10159025;28;1959;-71
